sensor_id;sensor_type;location;lat;lon;timestamp;P1;durP1;ratioP1;P2;durP2;ratioP2
10430;SDS011;5262;59.958;17.726;2024-03-08T00:00:42;3.53;;;2.40;;
10430;SDS011;5262;59.958;17.726;2024-03-08T00:03:08;2.97;;;2.07;;
10430;SDS011;5262;59.958;17.726;2024-03-08T00:05:35;6.53;;;2.13;;
10430;SDS011;5262;59.958;17.726;2024-03-08T00:08:04;4.00;;;1.87;;
10430;SDS011;5262;59.958;17.726;2024-03-08T00:10:35;3.13;;;1.83;;
10430;SDS011;5262;59.958;17.726;2024-03-08T00:13:00;3.13;;;1.67;;
10430;SDS011;5262;59.958;17.726;2024-03-08T00:15:29;3.37;;;1.90;;
10430;SDS011;5262;59.958;17.726;2024-03-08T00:17:54;3.67;;;1.90;;
10430;SDS011;5262;59.958;17.726;2024-03-08T00:20:20;3.57;;;2.23;;
10430;SDS011;5262;59.958;17.726;2024-03-08T00:22:46;2.97;;;1.80;;
10430;SDS011;5262;59.958;17.726;2024-03-08T00:25:12;4.40;;;2.20;;
10430;SDS011;5262;59.958;17.726;2024-03-08T00:27:37;3.90;;;2.10;;
10430;SDS011;5262;59.958;17.726;2024-03-08T00:30:03;4.30;;;2.03;;
10430;SDS011;5262;59.958;17.726;2024-03-08T00:32:30;4.67;;;1.60;;
10430;SDS011;5262;59.958;17.726;2024-03-08T00:34:57;3.50;;;1.93;;
10430;SDS011;5262;59.958;17.726;2024-03-08T00:37:23;2.83;;;1.87;;
10430;SDS011;5262;59.958;17.726;2024-03-08T00:39:52;4.83;;;2.00;;
10430;SDS011;5262;59.958;17.726;2024-03-08T00:42:18;4.90;;;2.00;;
10430;SDS011;5262;59.958;17.726;2024-03-08T00:44:44;4.43;;;1.80;;
10430;SDS011;5262;59.958;17.726;2024-03-08T00:47:10;2.43;;;1.67;;
10430;SDS011;5262;59.958;17.726;2024-03-08T00:49:36;4.03;;;2.03;;
10430;SDS011;5262;59.958;17.726;2024-03-08T00:52:03;3.10;;;1.70;;
10430;SDS011;5262;59.958;17.726;2024-03-08T00:54:33;3.43;;;1.90;;
10430;SDS011;5262;59.958;17.726;2024-03-08T00:57:00;4.23;;;2.10;;
10430;SDS011;5262;59.958;17.726;2024-03-08T00:59:28;4.00;;;1.90;;
10430;SDS011;5262;59.958;17.726;2024-03-08T01:01:54;2.57;;;1.70;;
10430;SDS011;5262;59.958;17.726;2024-03-08T01:04:20;5.13;;;2.00;;
10430;SDS011;5262;59.958;17.726;2024-03-08T01:06:46;6.80;;;2.07;;
10430;SDS011;5262;59.958;17.726;2024-03-08T01:09:12;5.07;;;2.20;;
10430;SDS011;5262;59.958;17.726;2024-03-08T01:11:38;1.90;;;1.60;;
10430;SDS011;5262;59.958;17.726;2024-03-08T01:14:04;3.77;;;2.20;;
10430;SDS011;5262;59.958;17.726;2024-03-08T01:16:30;3.60;;;2.13;;
10430;SDS011;5262;59.958;17.726;2024-03-08T01:18:58;3.93;;;2.00;;
10430;SDS011;5262;59.958;17.726;2024-03-08T01:21:24;2.57;;;1.83;;
10430;SDS011;5262;59.958;17.726;2024-03-08T01:23:49;5.67;;;2.13;;
10430;SDS011;5262;59.958;17.726;2024-03-08T01:26:15;3.33;;;1.93;;
10430;SDS011;5262;59.958;17.726;2024-03-08T01:28:41;3.07;;;2.23;;
10430;SDS011;5262;59.958;17.726;2024-03-08T01:31:07;3.67;;;2.23;;
10430;SDS011;5262;59.958;17.726;2024-03-08T01:33:32;3.83;;;2.10;;
10430;SDS011;5262;59.958;17.726;2024-03-08T01:35:58;5.33;;;2.37;;
10430;SDS011;5262;59.958;17.726;2024-03-08T01:38:24;4.17;;;2.13;;
10430;SDS011;5262;59.958;17.726;2024-03-08T01:40:50;3.40;;;2.20;;
10430;SDS011;5262;59.958;17.726;2024-03-08T01:45:46;4.23;;;2.30;;
10430;SDS011;5262;59.958;17.726;2024-03-08T01:48:13;9.47;;;2.60;;
10430;SDS011;5262;59.958;17.726;2024-03-08T01:50:42;3.47;;;2.37;;
10430;SDS011;5262;59.958;17.726;2024-03-08T01:53:08;6.80;;;2.30;;
10430;SDS011;5262;59.958;17.726;2024-03-08T01:55:38;6.53;;;2.60;;
10430;SDS011;5262;59.958;17.726;2024-03-08T01:58:07;8.63;;;2.80;;
10430;SDS011;5262;59.958;17.726;2024-03-08T02:00:36;5.60;;;2.43;;
10430;SDS011;5262;59.958;17.726;2024-03-08T02:03:05;3.97;;;2.17;;
10430;SDS011;5262;59.958;17.726;2024-03-08T02:05:31;7.13;;;3.17;;
10430;SDS011;5262;59.958;17.726;2024-03-08T02:07:57;5.07;;;2.53;;
10430;SDS011;5262;59.958;17.726;2024-03-08T02:10:23;4.60;;;2.87;;
10430;SDS011;5262;59.958;17.726;2024-03-08T02:12:49;6.17;;;2.60;;
10430;SDS011;5262;59.958;17.726;2024-03-08T02:15:15;4.63;;;2.50;;
10430;SDS011;5262;59.958;17.726;2024-03-08T02:17:41;5.17;;;2.50;;
10430;SDS011;5262;59.958;17.726;2024-03-08T02:20:07;5.93;;;2.50;;
10430;SDS011;5262;59.958;17.726;2024-03-08T02:22:34;6.77;;;2.93;;
10430;SDS011;5262;59.958;17.726;2024-03-08T02:25:01;5.40;;;2.77;;
10430;SDS011;5262;59.958;17.726;2024-03-08T02:27:28;4.43;;;2.77;;
10430;SDS011;5262;59.958;17.726;2024-03-08T02:29:55;4.70;;;2.97;;
10430;SDS011;5262;59.958;17.726;2024-03-08T02:32:21;4.03;;;2.43;;
10430;SDS011;5262;59.958;17.726;2024-03-08T02:34:47;5.60;;;2.67;;
10430;SDS011;5262;59.958;17.726;2024-03-08T02:37:14;5.53;;;3.10;;
10430;SDS011;5262;59.958;17.726;2024-03-08T02:39:40;5.03;;;2.37;;
10430;SDS011;5262;59.958;17.726;2024-03-08T02:42:06;6.80;;;2.83;;
10430;SDS011;5262;59.958;17.726;2024-03-08T02:44:32;5.60;;;2.50;;
10430;SDS011;5262;59.958;17.726;2024-03-08T02:46:58;4.60;;;2.60;;
10430;SDS011;5262;59.958;17.726;2024-03-08T02:49:25;5.90;;;2.67;;
10430;SDS011;5262;59.958;17.726;2024-03-08T02:51:51;4.80;;;2.60;;
10430;SDS011;5262;59.958;17.726;2024-03-08T02:54:18;6.30;;;2.93;;
10430;SDS011;5262;59.958;17.726;2024-03-08T02:56:44;6.33;;;3.10;;
10430;SDS011;5262;59.958;17.726;2024-03-08T02:59:11;7.47;;;2.83;;
10430;SDS011;5262;59.958;17.726;2024-03-08T03:01:43;7.30;;;2.50;;
10430;SDS011;5262;59.958;17.726;2024-03-08T03:04:08;5.90;;;2.67;;
10430;SDS011;5262;59.958;17.726;2024-03-08T03:06:34;5.53;;;2.93;;
10430;SDS011;5262;59.958;17.726;2024-03-08T03:09:00;10.17;;;2.70;;
10430;SDS011;5262;59.958;17.726;2024-03-08T03:11:26;4.77;;;2.73;;
10430;SDS011;5262;59.958;17.726;2024-03-08T03:13:52;4.90;;;2.63;;
10430;SDS011;5262;59.958;17.726;2024-03-08T03:16:21;6.50;;;3.20;;
10430;SDS011;5262;59.958;17.726;2024-03-08T03:18:48;6.40;;;3.03;;
10430;SDS011;5262;59.958;17.726;2024-03-08T03:21:14;10.17;;;2.60;;
10430;SDS011;5262;59.958;17.726;2024-03-08T03:23:40;4.33;;;2.40;;
10430;SDS011;5262;59.958;17.726;2024-03-08T03:26:07;7.60;;;2.70;;
10430;SDS011;5262;59.958;17.726;2024-03-08T03:28:34;5.33;;;2.70;;
10430;SDS011;5262;59.958;17.726;2024-03-08T03:30:59;9.07;;;2.73;;
10430;SDS011;5262;59.958;17.726;2024-03-08T03:33:26;6.13;;;3.10;;
10430;SDS011;5262;59.958;17.726;2024-03-08T03:35:52;7.00;;;2.70;;
10430;SDS011;5262;59.958;17.726;2024-03-08T03:38:18;4.30;;;2.63;;
10430;SDS011;5262;59.958;17.726;2024-03-08T03:40:45;4.03;;;2.73;;
10430;SDS011;5262;59.958;17.726;2024-03-08T03:43:11;4.80;;;3.03;;
10430;SDS011;5262;59.958;17.726;2024-03-08T03:45:37;5.87;;;2.80;;
10430;SDS011;5262;59.958;17.726;2024-03-08T03:48:04;8.63;;;3.00;;
10430;SDS011;5262;59.958;17.726;2024-03-08T03:50:34;4.83;;;2.70;;
10430;SDS011;5262;59.958;17.726;2024-03-08T03:53:00;7.37;;;3.10;;
10430;SDS011;5262;59.958;17.726;2024-03-08T03:55:27;5.93;;;2.60;;
10430;SDS011;5262;59.958;17.726;2024-03-08T03:57:53;5.77;;;2.83;;
10430;SDS011;5262;59.958;17.726;2024-03-08T04:00:19;3.87;;;2.50;;
10430;SDS011;5262;59.958;17.726;2024-03-08T04:02:45;7.87;;;3.20;;
10430;SDS011;5262;59.958;17.726;2024-03-08T04:05:11;5.83;;;3.17;;
10430;SDS011;5262;59.958;17.726;2024-03-08T04:07:38;6.63;;;2.73;;
10430;SDS011;5262;59.958;17.726;2024-03-08T04:10:04;6.43;;;3.03;;
10430;SDS011;5262;59.958;17.726;2024-03-08T04:12:32;7.97;;;2.87;;
10430;SDS011;5262;59.958;17.726;2024-03-08T04:14:58;8.03;;;3.03;;
10430;SDS011;5262;59.958;17.726;2024-03-08T04:17:24;7.17;;;3.27;;
10430;SDS011;5262;59.958;17.726;2024-03-08T04:19:50;10.57;;;3.20;;
10430;SDS011;5262;59.958;17.726;2024-03-08T04:22:16;6.07;;;3.33;;
10430;SDS011;5262;59.958;17.726;2024-03-08T04:24:43;8.20;;;3.50;;
10430;SDS011;5262;59.958;17.726;2024-03-08T04:27:09;7.40;;;4.13;;
10430;SDS011;5262;59.958;17.726;2024-03-08T04:29:35;5.13;;;2.97;;
10430;SDS011;5262;59.958;17.726;2024-03-08T04:32:02;7.20;;;3.23;;
10430;SDS011;5262;59.958;17.726;2024-03-08T04:34:29;5.23;;;2.90;;
10430;SDS011;5262;59.958;17.726;2024-03-08T04:36:57;7.10;;;3.27;;
10430;SDS011;5262;59.958;17.726;2024-03-08T04:39:23;5.53;;;3.10;;
10430;SDS011;5262;59.958;17.726;2024-03-08T04:41:49;7.83;;;3.17;;
10430;SDS011;5262;59.958;17.726;2024-03-08T04:44:15;8.17;;;3.63;;
10430;SDS011;5262;59.958;17.726;2024-03-08T04:46:42;8.03;;;3.07;;
10430;SDS011;5262;59.958;17.726;2024-03-08T04:49:09;8.73;;;3.33;;
10430;SDS011;5262;59.958;17.726;2024-03-08T04:51:36;7.33;;;2.40;;
10430;SDS011;5262;59.958;17.726;2024-03-08T04:54:02;6.30;;;2.80;;
10430;SDS011;5262;59.958;17.726;2024-03-08T04:56:29;6.70;;;3.37;;
10430;SDS011;5262;59.958;17.726;2024-03-08T04:58:55;6.83;;;3.10;;
10430;SDS011;5262;59.958;17.726;2024-03-08T05:01:21;5.43;;;2.60;;
10430;SDS011;5262;59.958;17.726;2024-03-08T05:03:46;6.57;;;2.50;;
10430;SDS011;5262;59.958;17.726;2024-03-08T05:06:15;6.60;;;3.40;;
10430;SDS011;5262;59.958;17.726;2024-03-08T05:08:41;7.37;;;3.03;;
10430;SDS011;5262;59.958;17.726;2024-03-08T05:11:06;6.87;;;3.43;;
10430;SDS011;5262;59.958;17.726;2024-03-08T05:13:32;7.87;;;3.37;;
10430;SDS011;5262;59.958;17.726;2024-03-08T05:15:59;5.80;;;3.47;;
10430;SDS011;5262;59.958;17.726;2024-03-08T05:18:25;8.00;;;3.07;;
10430;SDS011;5262;59.958;17.726;2024-03-08T05:20:53;4.93;;;2.87;;
10430;SDS011;5262;59.958;17.726;2024-03-08T05:23:19;7.20;;;3.67;;
10430;SDS011;5262;59.958;17.726;2024-03-08T05:25:45;6.07;;;3.40;;
10430;SDS011;5262;59.958;17.726;2024-03-08T05:28:13;4.00;;;2.73;;
10430;SDS011;5262;59.958;17.726;2024-03-08T05:30:39;8.67;;;3.20;;
10430;SDS011;5262;59.958;17.726;2024-03-08T05:33:05;6.10;;;3.00;;
10430;SDS011;5262;59.958;17.726;2024-03-08T05:35:30;10.53;;;3.47;;
10430;SDS011;5262;59.958;17.726;2024-03-08T05:37:57;11.83;;;3.23;;
10430;SDS011;5262;59.958;17.726;2024-03-08T05:40:23;9.50;;;3.57;;
10430;SDS011;5262;59.958;17.726;2024-03-08T05:42:49;6.20;;;3.30;;
10430;SDS011;5262;59.958;17.726;2024-03-08T05:45:14;18.23;;;4.20;;
10430;SDS011;5262;59.958;17.726;2024-03-08T05:47:40;9.83;;;3.10;;
10430;SDS011;5262;59.958;17.726;2024-03-08T05:50:06;7.77;;;3.70;;
10430;SDS011;5262;59.958;17.726;2024-03-08T05:52:36;8.93;;;3.87;;
10430;SDS011;5262;59.958;17.726;2024-03-08T05:55:03;12.47;;;4.30;;
10430;SDS011;5262;59.958;17.726;2024-03-08T05:57:32;7.13;;;3.90;;
10430;SDS011;5262;59.958;17.726;2024-03-08T05:59:58;10.10;;;4.67;;
10430;SDS011;5262;59.958;17.726;2024-03-08T06:02:23;6.97;;;4.10;;
10430;SDS011;5262;59.958;17.726;2024-03-08T06:04:49;7.73;;;4.97;;
10430;SDS011;5262;59.958;17.726;2024-03-08T06:07:15;7.87;;;4.97;;
10430;SDS011;5262;59.958;17.726;2024-03-08T06:09:42;9.10;;;4.97;;
10430;SDS011;5262;59.958;17.726;2024-03-08T06:12:11;9.67;;;4.30;;
10430;SDS011;5262;59.958;17.726;2024-03-08T06:14:37;11.87;;;5.20;;
10430;SDS011;5262;59.958;17.726;2024-03-08T06:17:03;12.80;;;5.37;;
10430;SDS011;5262;59.958;17.726;2024-03-08T06:19:32;10.97;;;4.77;;
10430;SDS011;5262;59.958;17.726;2024-03-08T06:21:58;10.77;;;4.70;;
10430;SDS011;5262;59.958;17.726;2024-03-08T06:24:23;10.03;;;4.33;;
10430;SDS011;5262;59.958;17.726;2024-03-08T06:26:49;8.47;;;4.37;;
10430;SDS011;5262;59.958;17.726;2024-03-08T06:29:14;5.87;;;3.90;;
10430;SDS011;5262;59.958;17.726;2024-03-08T06:31:40;8.07;;;4.30;;
10430;SDS011;5262;59.958;17.726;2024-03-08T06:34:06;6.20;;;3.77;;
10430;SDS011;5262;59.958;17.726;2024-03-08T06:36:35;7.77;;;3.60;;
10430;SDS011;5262;59.958;17.726;2024-03-08T06:39:02;7.00;;;3.63;;
10430;SDS011;5262;59.958;17.726;2024-03-08T06:41:34;12.10;;;4.03;;
10430;SDS011;5262;59.958;17.726;2024-03-08T06:44:03;7.10;;;3.67;;
10430;SDS011;5262;59.958;17.726;2024-03-08T06:46:28;7.47;;;3.37;;
10430;SDS011;5262;59.958;17.726;2024-03-08T06:48:54;8.53;;;3.73;;
10430;SDS011;5262;59.958;17.726;2024-03-08T06:51:19;6.33;;;2.93;;
10430;SDS011;5262;59.958;17.726;2024-03-08T06:53:45;4.67;;;2.57;;
10430;SDS011;5262;59.958;17.726;2024-03-08T06:56:11;4.53;;;2.97;;
10430;SDS011;5262;59.958;17.726;2024-03-08T06:58:37;4.90;;;3.20;;
10430;SDS011;5262;59.958;17.726;2024-03-08T07:01:02;5.03;;;3.23;;
10430;SDS011;5262;59.958;17.726;2024-03-08T07:03:32;5.97;;;2.80;;
10430;SDS011;5262;59.958;17.726;2024-03-08T07:05:58;6.30;;;2.73;;
10430;SDS011;5262;59.958;17.726;2024-03-08T07:08:24;5.43;;;2.70;;
10430;SDS011;5262;59.958;17.726;2024-03-08T07:10:49;3.27;;;2.40;;
10430;SDS011;5262;59.958;17.726;2024-03-08T07:13:15;3.83;;;2.60;;
10430;SDS011;5262;59.958;17.726;2024-03-08T07:15:42;5.13;;;2.63;;
10430;SDS011;5262;59.958;17.726;2024-03-08T07:18:08;5.47;;;2.50;;
10430;SDS011;5262;59.958;17.726;2024-03-08T07:20:39;4.33;;;2.30;;
10430;SDS011;5262;59.958;17.726;2024-03-08T07:23:05;3.80;;;2.20;;
10430;SDS011;5262;59.958;17.726;2024-03-08T07:25:30;4.90;;;2.50;;
10430;SDS011;5262;59.958;17.726;2024-03-08T07:27:56;4.83;;;2.33;;
10430;SDS011;5262;59.958;17.726;2024-03-08T07:30:25;3.13;;;2.53;;
10430;SDS011;5262;59.958;17.726;2024-03-08T07:33:12;4.77;;;2.50;;
10430;SDS011;5262;59.958;17.726;2024-03-08T07:35:38;4.03;;;2.43;;
10430;SDS011;5262;59.958;17.726;2024-03-08T07:38:05;4.77;;;2.90;;
10430;SDS011;5262;59.958;17.726;2024-03-08T07:40:38;4.00;;;2.57;;
10430;SDS011;5262;59.958;17.726;2024-03-08T07:43:07;5.00;;;2.30;;
10430;SDS011;5262;59.958;17.726;2024-03-08T07:45:33;6.27;;;2.37;;
10430;SDS011;5262;59.958;17.726;2024-03-08T07:47:59;5.20;;;2.50;;
10430;SDS011;5262;59.958;17.726;2024-03-08T07:50:24;4.33;;;2.37;;
10430;SDS011;5262;59.958;17.726;2024-03-08T07:52:50;3.93;;;2.40;;
10430;SDS011;5262;59.958;17.726;2024-03-08T07:55:16;4.90;;;2.50;;
10430;SDS011;5262;59.958;17.726;2024-03-08T07:57:42;5.03;;;3.00;;
10430;SDS011;5262;59.958;17.726;2024-03-08T08:00:10;3.33;;;2.30;;
10430;SDS011;5262;59.958;17.726;2024-03-08T08:02:38;5.77;;;2.90;;
10430;SDS011;5262;59.958;17.726;2024-03-08T08:05:03;4.90;;;2.80;;
10430;SDS011;5262;59.958;17.726;2024-03-08T08:07:29;3.17;;;2.63;;
10430;SDS011;5262;59.958;17.726;2024-03-08T08:09:55;3.33;;;2.37;;
10430;SDS011;5262;59.958;17.726;2024-03-08T08:12:21;3.73;;;2.20;;
10430;SDS011;5262;59.958;17.726;2024-03-08T08:14:46;3.53;;;2.33;;
10430;SDS011;5262;59.958;17.726;2024-03-08T08:17:12;4.07;;;2.30;;
10430;SDS011;5262;59.958;17.726;2024-03-08T08:19:40;3.00;;;2.20;;
10430;SDS011;5262;59.958;17.726;2024-03-08T08:22:06;2.67;;;2.27;;
10430;SDS011;5262;59.958;17.726;2024-03-08T08:24:33;3.87;;;2.50;;
10430;SDS011;5262;59.958;17.726;2024-03-08T08:27:01;3.87;;;1.90;;
10430;SDS011;5262;59.958;17.726;2024-03-08T08:29:27;2.90;;;2.00;;
10430;SDS011;5262;59.958;17.726;2024-03-08T08:31:53;5.23;;;2.20;;
10430;SDS011;5262;59.958;17.726;2024-03-08T08:34:19;6.53;;;2.07;;
10430;SDS011;5262;59.958;17.726;2024-03-08T08:36:46;1.97;;;1.40;;
10430;SDS011;5262;59.958;17.726;2024-03-08T08:39:12;3.10;;;1.67;;
10430;SDS011;5262;59.958;17.726;2024-03-08T08:41:38;4.07;;;1.93;;
10430;SDS011;5262;59.958;17.726;2024-03-08T08:44:06;3.30;;;1.80;;
10430;SDS011;5262;59.958;17.726;2024-03-08T08:46:35;3.37;;;2.17;;
10430;SDS011;5262;59.958;17.726;2024-03-08T08:49:02;2.77;;;2.00;;
10430;SDS011;5262;59.958;17.726;2024-03-08T08:51:29;3.20;;;1.97;;
10430;SDS011;5262;59.958;17.726;2024-03-08T08:53:55;3.07;;;1.77;;
10430;SDS011;5262;59.958;17.726;2024-03-08T08:56:21;4.95;;;2.00;;
10430;SDS011;5262;59.958;17.726;2024-03-08T08:58:47;3.57;;;2.10;;
10430;SDS011;5262;59.958;17.726;2024-03-08T09:01:14;3.10;;;1.90;;
10430;SDS011;5262;59.958;17.726;2024-03-08T09:03:40;2.93;;;1.87;;
10430;SDS011;5262;59.958;17.726;2024-03-08T09:06:08;2.67;;;1.90;;
10430;SDS011;5262;59.958;17.726;2024-03-08T09:08:37;3.33;;;2.00;;
10430;SDS011;5262;59.958;17.726;2024-03-08T09:11:06;4.37;;;1.73;;
10430;SDS011;5262;59.958;17.726;2024-03-08T09:13:32;2.37;;;1.63;;
10430;SDS011;5262;59.958;17.726;2024-03-08T09:16:01;3.07;;;1.67;;
10430;SDS011;5262;59.958;17.726;2024-03-08T09:18:28;2.07;;;1.53;;
10430;SDS011;5262;59.958;17.726;2024-03-08T09:20:54;2.83;;;1.97;;
10430;SDS011;5262;59.958;17.726;2024-03-08T09:23:20;2.90;;;1.87;;
10430;SDS011;5262;59.958;17.726;2024-03-08T09:25:46;3.17;;;1.90;;
10430;SDS011;5262;59.958;17.726;2024-03-08T09:28:11;2.77;;;1.80;;
10430;SDS011;5262;59.958;17.726;2024-03-08T09:30:40;3.17;;;1.60;;
10430;SDS011;5262;59.958;17.726;2024-03-08T09:33:06;2.60;;;1.70;;
10430;SDS011;5262;59.958;17.726;2024-03-08T09:35:32;2.93;;;1.50;;
10430;SDS011;5262;59.958;17.726;2024-03-08T09:37:58;3.53;;;1.57;;
10430;SDS011;5262;59.958;17.726;2024-03-08T09:40:23;3.57;;;1.60;;
10430;SDS011;5262;59.958;17.726;2024-03-08T09:42:50;4.50;;;1.53;;
10430;SDS011;5262;59.958;17.726;2024-03-08T09:45:17;3.03;;;1.60;;
10430;SDS011;5262;59.958;17.726;2024-03-08T09:47:47;2.50;;;1.37;;
10430;SDS011;5262;59.958;17.726;2024-03-08T09:50:14;2.97;;;1.50;;
10430;SDS011;5262;59.958;17.726;2024-03-08T09:52:41;4.77;;;1.50;;
10430;SDS011;5262;59.958;17.726;2024-03-08T09:55:09;2.77;;;1.37;;
10430;SDS011;5262;59.958;17.726;2024-03-08T09:57:36;3.27;;;1.20;;
10430;SDS011;5262;59.958;17.726;2024-03-08T10:00:03;2.27;;;1.27;;
10430;SDS011;5262;59.958;17.726;2024-03-08T10:02:46;3.20;;;1.37;;
10430;SDS011;5262;59.958;17.726;2024-03-08T10:05:13;3.07;;;1.20;;
10430;SDS011;5262;59.958;17.726;2024-03-08T10:07:39;2.43;;;1.40;;
10430;SDS011;5262;59.958;17.726;2024-03-08T10:10:05;3.93;;;1.43;;
10430;SDS011;5262;59.958;17.726;2024-03-08T10:12:33;4.10;;;1.30;;
10430;SDS011;5262;59.958;17.726;2024-03-08T10:15:01;1.93;;;1.40;;
10430;SDS011;5262;59.958;17.726;2024-03-08T10:17:27;2.30;;;1.50;;
10430;SDS011;5262;59.958;17.726;2024-03-08T10:19:57;2.45;;;1.73;;
10430;SDS011;5262;59.958;17.726;2024-03-08T10:22:24;2.22;;;1.27;;
10430;SDS011;5262;59.958;17.726;2024-03-08T10:24:51;3.13;;;1.80;;
10430;SDS011;5262;59.958;17.726;2024-03-08T10:27:17;2.97;;;1.52;;
10430;SDS011;5262;59.958;17.726;2024-03-08T10:29:46;3.28;;;1.75;;
10430;SDS011;5262;59.958;17.726;2024-03-08T10:32:13;2.03;;;1.63;;
10430;SDS011;5262;59.958;17.726;2024-03-08T10:34:38;2.90;;;1.60;;
10430;SDS011;5262;59.958;17.726;2024-03-08T10:37:06;2.72;;;1.77;;
10430;SDS011;5262;59.958;17.726;2024-03-08T10:39:37;2.88;;;1.88;;
10430;SDS011;5262;59.958;17.726;2024-03-08T10:42:03;2.30;;;1.50;;
10430;SDS011;5262;59.958;17.726;2024-03-08T10:47:02;3.65;;;1.50;;
10430;SDS011;5262;59.958;17.726;2024-03-08T10:52:43;2.95;;;1.50;;
10430;SDS011;5262;59.958;17.726;2024-03-08T10:55:09;3.15;;;1.33;;
10430;SDS011;5262;59.958;17.726;2024-03-08T10:57:38;3.80;;;1.38;;
10430;SDS011;5262;59.958;17.726;2024-03-08T11:00:05;3.33;;;1.70;;
10430;SDS011;5262;59.958;17.726;2024-03-08T11:02:35;3.95;;;1.58;;
10430;SDS011;5262;59.958;17.726;2024-03-08T11:05:02;3.67;;;1.55;;
10430;SDS011;5262;59.958;17.726;2024-03-08T11:07:33;2.75;;;1.88;;
10430;SDS011;5262;59.958;17.726;2024-03-08T11:10:03;1.98;;;1.40;;
10430;SDS011;5262;59.958;17.726;2024-03-08T11:12:38;2.53;;;1.50;;
10430;SDS011;5262;59.958;17.726;2024-03-08T11:15:13;3.35;;;1.50;;
10430;SDS011;5262;59.958;17.726;2024-03-08T11:17:40;2.13;;;1.30;;
10430;SDS011;5262;59.958;17.726;2024-03-08T11:20:11;3.70;;;1.77;;
10430;SDS011;5262;59.958;17.726;2024-03-08T11:22:51;3.60;;;1.23;;
10430;SDS011;5262;59.958;17.726;2024-03-08T11:25:34;2.55;;;1.35;;
10430;SDS011;5262;59.958;17.726;2024-03-08T11:28:10;4.07;;;1.70;;
10430;SDS011;5262;59.958;17.726;2024-03-08T11:30:44;1.97;;;1.50;;
10430;SDS011;5262;59.958;17.726;2024-03-08T11:33:12;2.77;;;1.70;;
10430;SDS011;5262;59.958;17.726;2024-03-08T11:35:42;3.73;;;1.30;;
10430;SDS011;5262;59.958;17.726;2024-03-08T11:38:11;4.23;;;1.50;;
10430;SDS011;5262;59.958;17.726;2024-03-08T11:40:38;4.70;;;1.70;;
10430;SDS011;5262;59.958;17.726;2024-03-08T11:43:05;3.20;;;1.53;;
10430;SDS011;5262;59.958;17.726;2024-03-08T11:45:33;1.97;;;1.40;;
10430;SDS011;5262;59.958;17.726;2024-03-08T11:48:02;2.23;;;1.40;;
10430;SDS011;5262;59.958;17.726;2024-03-08T11:50:31;3.60;;;1.40;;
10430;SDS011;5262;59.958;17.726;2024-03-08T11:53:04;2.50;;;1.60;;
10430;SDS011;5262;59.958;17.726;2024-03-08T11:55:33;3.13;;;1.43;;
10430;SDS011;5262;59.958;17.726;2024-03-08T11:58:04;2.83;;;1.40;;
10430;SDS011;5262;59.958;17.726;2024-03-08T12:00:30;2.40;;;1.50;;
10430;SDS011;5262;59.958;17.726;2024-03-08T12:03:06;3.07;;;1.20;;
10430;SDS011;5262;59.958;17.726;2024-03-08T12:05:34;2.60;;;1.40;;
10430;SDS011;5262;59.958;17.726;2024-03-08T12:08:04;1.90;;;1.20;;
10430;SDS011;5262;59.958;17.726;2024-03-08T12:10:32;4.00;;;1.63;;
10430;SDS011;5262;59.958;17.726;2024-03-08T12:13:00;2.17;;;1.60;;
10430;SDS011;5262;59.958;17.726;2024-03-08T12:15:25;2.97;;;1.53;;
10430;SDS011;5262;59.958;17.726;2024-03-08T12:17:53;3.43;;;1.23;;
10430;SDS011;5262;59.958;17.726;2024-03-08T12:22:55;2.43;;;1.30;;
10430;SDS011;5262;59.958;17.726;2024-03-08T12:25:27;1.63;;;1.20;;
10430;SDS011;5262;59.958;17.726;2024-03-08T12:27:56;2.80;;;1.20;;
10430;SDS011;5262;59.958;17.726;2024-03-08T12:30:31;2.60;;;1.33;;
10430;SDS011;5262;59.958;17.726;2024-03-08T12:33:01;3.30;;;1.30;;
10430;SDS011;5262;59.958;17.726;2024-03-08T12:35:27;2.00;;;1.60;;
10430;SDS011;5262;59.958;17.726;2024-03-08T12:37:57;2.77;;;1.50;;
10430;SDS011;5262;59.958;17.726;2024-03-08T12:40:31;1.60;;;1.40;;
10430;SDS011;5262;59.958;17.726;2024-03-08T12:42:57;3.20;;;1.20;;
10430;SDS011;5262;59.958;17.726;2024-03-08T12:45:24;3.70;;;1.50;;
10430;SDS011;5262;59.958;17.726;2024-03-08T12:47:53;3.00;;;1.57;;
10430;SDS011;5262;59.958;17.726;2024-03-08T12:50:19;3.40;;;1.43;;
10430;SDS011;5262;59.958;17.726;2024-03-08T12:52:45;2.27;;;1.47;;
10430;SDS011;5262;59.958;17.726;2024-03-08T12:55:11;2.97;;;1.77;;
10430;SDS011;5262;59.958;17.726;2024-03-08T12:57:37;1.70;;;1.10;;
10430;SDS011;5262;59.958;17.726;2024-03-08T13:00:04;2.80;;;1.27;;
10430;SDS011;5262;59.958;17.726;2024-03-08T13:02:30;1.50;;;1.07;;
10430;SDS011;5262;59.958;17.726;2024-03-08T13:04:57;4.57;;;1.40;;
10430;SDS011;5262;59.958;17.726;2024-03-08T13:07:23;1.20;;;1.03;;
10430;SDS011;5262;59.958;17.726;2024-03-08T13:09:54;4.83;;;1.23;;
10430;SDS011;5262;59.958;17.726;2024-03-08T13:12:20;4.33;;;0.90;;
10430;SDS011;5262;59.958;17.726;2024-03-08T13:14:47;1.40;;;1.00;;
10430;SDS011;5262;59.958;17.726;2024-03-08T13:17:15;1.00;;;0.90;;
10430;SDS011;5262;59.958;17.726;2024-03-08T13:19:43;2.93;;;0.90;;
10430;SDS011;5262;59.958;17.726;2024-03-08T13:22:09;1.90;;;1.13;;
10430;SDS011;5262;59.958;17.726;2024-03-08T13:24:41;1.77;;;0.93;;
10430;SDS011;5262;59.958;17.726;2024-03-08T13:27:10;1.07;;;0.80;;
10430;SDS011;5262;59.958;17.726;2024-03-08T13:29:50;0.93;;;0.83;;
10430;SDS011;5262;59.958;17.726;2024-03-08T13:32:16;1.23;;;0.93;;
10430;SDS011;5262;59.958;17.726;2024-03-08T13:34:45;2.27;;;0.90;;
10430;SDS011;5262;59.958;17.726;2024-03-08T13:37:12;1.00;;;0.87;;
10430;SDS011;5262;59.958;17.726;2024-03-08T13:39:40;1.30;;;0.83;;
10430;SDS011;5262;59.958;17.726;2024-03-08T13:42:17;1.60;;;0.97;;
10430;SDS011;5262;59.958;17.726;2024-03-08T13:44:44;0.77;;;0.60;;
10430;SDS011;5262;59.958;17.726;2024-03-08T13:47:14;1.00;;;0.90;;
10430;SDS011;5262;59.958;17.726;2024-03-08T13:49:42;0.93;;;0.70;;
10430;SDS011;5262;59.958;17.726;2024-03-08T13:52:09;1.47;;;0.80;;
10430;SDS011;5262;59.958;17.726;2024-03-08T13:54:41;0.80;;;0.70;;
10430;SDS011;5262;59.958;17.726;2024-03-08T13:57:07;0.97;;;0.80;;
10430;SDS011;5262;59.958;17.726;2024-03-08T13:59:33;1.67;;;1.00;;
10430;SDS011;5262;59.958;17.726;2024-03-08T14:02:00;0.97;;;0.80;;
10430;SDS011;5262;59.958;17.726;2024-03-08T14:04:27;1.57;;;0.73;;
10430;SDS011;5262;59.958;17.726;2024-03-08T14:06:53;1.43;;;0.70;;
10430;SDS011;5262;59.958;17.726;2024-03-08T14:09:26;0.90;;;0.60;;
10430;SDS011;5262;59.958;17.726;2024-03-08T14:11:54;0.60;;;0.60;;
10430;SDS011;5262;59.958;17.726;2024-03-08T14:14:23;1.33;;;1.00;;
10430;SDS011;5262;59.958;17.726;2024-03-08T14:16:49;1.27;;;0.83;;
10430;SDS011;5262;59.958;17.726;2024-03-08T14:19:19;1.43;;;0.70;;
10430;SDS011;5262;59.958;17.726;2024-03-08T14:21:45;3.27;;;0.90;;
10430;SDS011;5262;59.958;17.726;2024-03-08T14:24:13;0.90;;;0.80;;
10430;SDS011;5262;59.958;17.726;2024-03-08T14:26:42;1.03;;;0.83;;
10430;SDS011;5262;59.958;17.726;2024-03-08T14:29:08;1.07;;;0.90;;
10430;SDS011;5262;59.958;17.726;2024-03-08T14:31:37;1.30;;;0.80;;
10430;SDS011;5262;59.958;17.726;2024-03-08T14:34:03;2.73;;;0.93;;
10430;SDS011;5262;59.958;17.726;2024-03-08T14:36:29;0.90;;;0.90;;
10430;SDS011;5262;59.958;17.726;2024-03-08T14:38:55;1.17;;;0.97;;
10430;SDS011;5262;59.958;17.726;2024-03-08T14:41:21;2.23;;;1.10;;
10430;SDS011;5262;59.958;17.726;2024-03-08T14:43:49;3.07;;;1.37;;
10430;SDS011;5262;59.958;17.726;2024-03-08T14:46:18;1.30;;;0.90;;
10430;SDS011;5262;59.958;17.726;2024-03-08T14:48:49;1.53;;;0.90;;
10430;SDS011;5262;59.958;17.726;2024-03-08T14:51:18;5.30;;;1.00;;
10430;SDS011;5262;59.958;17.726;2024-03-08T14:53:47;1.67;;;0.97;;
10430;SDS011;5262;59.958;17.726;2024-03-08T14:56:14;1.23;;;0.97;;
10430;SDS011;5262;59.958;17.726;2024-03-08T14:58:44;1.30;;;1.20;;